Ana Sayfa
METAR-TAF:

METAR-TAF

Havaalanları :

Majuro, Marshall Adaları

Enlem: 07-04N, Boylam: 171-17E, yükseklik: 2 m

Güncel hava durumu gözlemi

Rapor saat 00:53 UTC de 1 saat ve 46 dakika önce yapıldı.
Rüzgar doğu/kuzeydoğudan 5 kt
Sıcaklık 31°C
Nem 71%
Basınç 1007 hPa
Görüş mesafesi: 24.1 km
1500 ft yükseklikte az bulutlu
5000 ft yükseklikte parçalı bulutlu
12000 ft yükseklikte parçalı çok bulutlu
30000 ft yükseklikte çok bulutlu

METAR: PKMJ 230053Z 06005KT 15SM FEW015 SCT050 BKN120 OVC300 31/25 A2974 RMK LAST

Saat: 14:39 (02:39 UTC)

Tahmin

Rapor saat 23:32 UTC de 3 saat ve 7 dakika önce yapıldı.
Ayın 23'si saat 00 UTC'den ayın 23'si saat 24 UTC'ye kadar geçerli Tahmin
Rüzgar değişken yönden 5 kt
Görüş mesafesi: 10 km
1500 ft yükseklikte parçalı bulutlu
5000 ft yükseklikte parçalı bulutlu
12000 ft yükseklikte parçalı çok bulutlu
Civarda sağanaklar

TAF: PKMJ 222332Z 2300/2324 VRB05KT P6SM VCSH SCT015 SCT050 BKN120

4.000'den fazla havaalanı için hava durumu gözlemleri ve tahminleri (METAR ve TAF raporları).

Kullanılabilir istasyonlar harita üzerinde sarı ve kırmızı noktalarla gösterilir.

İstasyonun adını görmek için fareyi noktanın üzerinde gezdirin.

Sonrasında hava gözlem ve tahminlerini görmek için tıklayın.

Haritayı değiştirmek için: yaklaştırmak için siyah artı işaretli yeşil düğmeye ve uzaklaştırmak için de eksi işaretli düğmeye hızla tıklayın; bitişik haritalar için yeşil okları kullanın.


METAR-TAF: